Time;durP1;ratioP1;P1;durP2;ratioP2;P2;SDS_P1;SDS_P2;PMS_P1;PMS_P2;Temp;Humidity;BMP_temperature;BMP_pressure;BME280_temperature;BME280_humidity;BME280_pressure;Samples;Min_cycle;Max_cycle;Signal;HPM_P1;HPM_P2
2022/04/08 00:01:53;;;;;;;5.63;1.90;;;11.70;99.90;;;;;;10342004;28;20722;-84
2022/04/08 00:06:56;;;;;;;7.63;2.17;;;11.70;99.90;;;;;;10348170;28;20242;-84
2022/04/08 00:11:58;;;;;;;4.10;2.10;;;11.60;99.90;;;;;;10317731;28;20214;-83
2022/04/08 00:17:05;;;;;;;4.03;1.87;;;11.60;99.90;;;;;;10336038;28;20242;-83
2022/04/08 00:22:07;;;;;;;4.17;2.33;;;11.60;99.90;;;;;;10329270;28;20211;-83
2022/04/08 00:27:09;;;;;;;4.67;2.10;;;11.60;99.90;;;;;;10332847;28;20219;-83
2022/04/08 00:32:13;;;;;;;5.10;2.23;;;11.70;99.90;;;;;;10337945;28;20290;-82
2022/04/08 00:37:15;;;;;;;2.30;1.90;;;11.70;99.90;;;;;;10346495;28;20219;-83
2022/04/08 00:42:17;;;;;;;6.20;2.37;;;11.70;99.90;;;;;;10327125;28;20650;-83
2022/04/08 00:47:21;;;;;;;2.80;1.73;;;11.70;99.90;;;;;;10358258;28;20225;-82
2022/04/08 00:52:23;;;;;;;3.10;2.10;;;11.70;99.90;;;;;;10337567;28;20462;-83
2022/04/08 00:57:25;;;;;;;4.20;2.40;;;11.70;99.90;;;;;;10353926;28;20215;-83
2022/04/08 01:02:29;;;;;;;4.03;2.20;;;11.60;99.90;;;;;;10337790;28;20203;-83
2022/04/08 01:07:32;;;;;;;3.43;2.70;;;11.60;99.90;;;;;;10336391;28;20226;-83
2022/04/08 01:12:34;;;;;;;3.33;2.43;;;11.60;99.90;;;;;;10360281;28;20290;-83
2022/04/08 01:17:38;;;;;;;5.93;2.20;;;11.50;99.90;;;;;;10351577;28;20223;-85
2022/04/08 01:22:41;;;;;;;2.20;2.00;;;11.50;99.90;;;;;;10364938;28;20627;-82
2022/04/08 01:27:44;;;;;;;7.73;2.30;;;11.50;99.90;;;;;;10358886;28;20227;-83
2022/04/08 01:32:47;;;;;;;3.07;2.27;;;11.50;99.50;;;;;;10367048;28;20293;-83
2022/04/08 01:37:49;;;;;;;3.77;2.13;;;11.40;99.90;;;;;;10370233;28;20218;-83
2022/04/08 01:42:52;;;;;;;4.13;2.00;;;11.40;99.90;;;;;;10350325;28;20210;-84
2022/04/08 01:47:54;;;;;;;3.40;2.10;;;11.40;99.90;;;;;;10347908;28;20234;-84
2022/04/08 01:52:57;;;;;;;7.40;2.60;;;11.40;99.90;;;;;;10363994;28;20441;-85
2022/04/08 01:58:02;;;;;;;4.50;2.30;;;11.40;99.90;;;;;;10339667;28;20209;-84
2022/04/08 02:03:04;;;;;;;3.13;1.93;;;11.30;99.90;;;;;;10354392;28;20203;-83
2022/04/08 02:08:07;;;;;;;2.50;1.83;;;11.30;99.90;;;;;;10366308;28;20234;-83
2022/04/08 02:13:11;;;;;;;4.63;2.17;;;11.30;99.90;;;;;;10354134;28;20205;-84
2022/04/08 02:18:14;;;;;;;2.50;2.13;;;11.30;99.90;;;;;;10328333;28;20583;-83
2022/04/08 02:23:17;;;;;;;4.00;2.30;;;11.20;99.90;;;;;;10377175;28;20229;-85
2022/04/08 02:28:20;;;;;;;4.30;2.03;;;11.20;99.90;;;;;;10360474;28;20273;-84
2022/04/08 02:33:22;;;;;;;2.50;1.97;;;11.10;99.90;;;;;;10369540;28;20218;-84
2022/04/08 02:38:25;;;;;;;2.90;2.23;;;11.10;99.90;;;;;;10374521;28;20226;-84
2022/04/08 02:43:28;;;;;;;3.00;2.40;;;11.10;99.90;;;;;;10360648;28;20222;-83
2022/04/08 02:48:30;;;;;;;3.87;1.80;;;11.10;99.90;;;;;;10342801;28;20285;-84
2022/04/08 02:53:33;;;;;;;3.23;1.90;;;11.10;99.90;;;;;;10372109;28;20224;-83
2022/04/08 02:58:37;;;;;;;2.60;2.13;;;11.10;99.90;;;;;;10355620;28;20642;-84
2022/04/08 03:03:39;;;;;;;3.33;2.10;;;11.20;99.90;;;;;;10378782;28;20226;-83
2022/04/08 03:08:41;;;;;;;3.23;2.30;;;11.30;99.90;;;;;;10383186;28;20218;-84
2022/04/08 03:13:45;;;;;;;6.57;2.83;;;11.30;99.90;;;;;;10355821;28;20254;-83
2022/04/08 03:18:47;;;;;;;2.97;2.60;;;11.30;99.90;;;;;;10354793;28;20205;-85
2022/04/08 03:23:49;;;;;;;4.97;2.70;;;11.30;99.90;;;;;;10391980;23;20245;-79
2022/04/08 03:28:52;;;;;;;4.73;3.20;;;11.30;99.90;;;;;;10354385;28;20623;-79
2022/04/08 03:33:58;;;;;;;3.17;2.70;;;11.20;99.90;;;;;;10360227;28;20214;-81
2022/04/08 03:39:00;;;;;;;2.60;2.10;;;11.20;99.90;;;;;;10374562;28;20195;-80
2022/04/08 03:44:04;;;;;;;2.53;2.13;;;11.20;99.90;;;;;;10375432;28;20218;-81
2022/04/08 03:49:11;;;;;;;3.40;2.03;;;11.10;99.90;;;;;;10377288;28;20221;-80
2022/04/08 03:54:14;;;;;;;3.10;2.00;;;11.10;99.90;;;;;;10337413;28;20262;-80
2022/04/08 03:59:17;;;;;;;2.57;1.90;;;11.00;99.90;;;;;;10373472;28;20616;-80
2022/04/08 04:04:19;;;;;;;3.00;2.30;;;11.00;99.90;;;;;;10343698;28;20230;-81
2022/04/08 04:09:21;;;;;;;4.70;2.77;;;11.10;99.90;;;;;;10359263;28;20694;-81
2022/04/08 04:14:25;;;;;;;5.00;2.53;;;11.10;99.90;;;;;;10345964;28;20305;-81
2022/04/08 04:19:27;;;;;;;5.17;2.13;;;11.00;99.90;;;;;;10373700;28;20199;-81
2022/04/08 04:24:29;;;;;;;3.50;2.30;;;11.10;99.90;;;;;;10358350;28;20231;-81
2022/04/08 04:29:33;;;;;;;2.73;2.30;;;11.00;99.90;;;;;;10361540;28;20273;-80
2022/04/08 04:34:38;;;;;;;8.23;4.23;;;11.00;99.90;;;;;;10369016;28;20226;-81
2022/04/08 04:39:40;;;;;;;5.60;1.93;;;11.00;99.90;;;;;;10345839;28;20200;-81
2022/04/08 04:44:44;;;;;;;11.80;3.30;;;11.00;99.90;;;;;;10338854;28;20314;-81
2022/04/08 04:49:46;;;;;;;6.40;2.97;;;11.00;99.90;;;;;;10357024;28;20223;-81
2022/04/08 04:54:48;;;;;;;3.57;2.50;;;11.00;99.90;;;;;;10349460;28;20277;-81
2022/04/08 04:59:51;;;;;;;2.40;2.20;;;11.00;99.90;;;;;;10348344;28;20196;-81
2022/04/08 05:04:53;;;;;;;4.67;2.17;;;11.00;99.90;;;;;;10367575;28;20317;-81
2022/04/08 05:09:55;;;;;;;4.67;2.63;;;10.90;99.30;;;;;;10360477;28;20266;-81
2022/04/08 05:14:59;;;;;;;6.37;2.37;;;10.90;99.90;;;;;;10350592;28;20310;-81
2022/04/08 05:20:01;;;;;;;4.23;2.77;;;10.90;99.90;;;;;;10353869;28;20217;-81
2022/04/08 05:25:03;;;;;;;4.50;2.27;;;10.90;99.90;;;;;;10332465;28;20294;-81
2022/04/08 05:30:12;;;;;;;3.00;2.30;;;10.90;99.90;;;;;;10367428;28;20325;-80
2022/04/08 05:35:15;;;;;;;3.67;2.60;;;11.00;99.90;;;;;;10320119;28;20223;-80
2022/04/08 05:40:21;;;;;;;3.40;2.70;;;11.00;99.90;;;;;;10364176;28;20218;-81
2022/04/08 05:45:25;;;;;;;4.53;2.73;;;11.10;99.90;;;;;;10369712;28;20237;-80
2022/04/08 05:50:27;;;;;;;6.87;2.47;;;11.10;99.90;;;;;;10359719;28;20230;-80
2022/04/08 05:55:29;;;;;;;4.67;2.60;;;11.20;99.90;;;;;;10356761;28;20257;-80
2022/04/08 06:00:34;;;;;;;4.30;2.60;;;11.20;99.90;;;;;;10350726;28;20205;-83
2022/04/08 06:05:36;;;;;;;7.17;2.60;;;11.30;99.90;;;;;;10368674;28;20276;-80
2022/04/08 06:10:39;;;;;;;3.33;2.53;;;11.30;99.90;;;;;;10353715;28;20249;-80
2022/04/08 06:15:42;;;;;;;4.53;2.20;;;11.20;99.90;;;;;;10367819;28;20230;-80
2022/04/08 06:20:48;;;;;;;3.20;2.60;;;11.10;99.90;;;;;;10371528;28;20663;-80
2022/04/08 06:25:50;;;;;;;3.83;2.20;;;10.80;99.90;;;;;;10366984;28;20230;-80
2022/04/08 06:30:53;;;;;;;3.43;2.50;;;10.70;99.90;;;;;;10366962;28;20226;-80
2022/04/08 06:35:55;;;;;;;3.40;1.87;;;10.60;99.90;;;;;;10352113;28;20297;-80
2022/04/08 06:40:58;;;;;;;2.50;2.30;;;10.60;99.90;;;;;;10353891;28;20655;-80
2022/04/08 06:46:01;;;;;;;2.87;2.20;;;10.60;99.90;;;;;;10354014;28;20283;-80
2022/04/08 06:51:04;;;;;;;3.50;2.10;;;10.60;99.90;;;;;;10357411;28;20609;-81
2022/04/08 06:56:06;;;;;;;2.43;1.90;;;10.60;99.90;;;;;;10372661;28;20776;-80
2022/04/08 07:01:10;;;;;;;2.63;2.13;;;10.70;99.90;;;;;;10336439;28;20486;-80
2022/04/08 07:06:12;;;;;;;3.50;2.40;;;10.60;99.90;;;;;;10342375;28;20654;-80
2022/04/08 07:11:14;;;;;;;3.40;2.23;;;10.40;99.90;;;;;;10353958;28;20690;-80
2022/04/08 07:16:18;;;;;;;2.50;1.77;;;10.40;99.90;;;;;;10349846;28;20246;-80
2022/04/08 07:21:21;;;;;;;2.20;2.00;;;10.30;99.90;;;;;;10371771;28;20203;-80
2022/04/08 07:26:23;;;;;;;2.13;1.93;;;10.20;99.90;;;;;;10355013;28;20619;-81
2022/04/08 07:31:27;;;;;;;8.43;2.20;;;10.20;99.90;;;;;;10358135;28;20596;-81
2022/04/08 07:36:29;;;;;;;4.63;2.63;;;10.00;99.90;;;;;;10360397;28;20272;-81
2022/04/08 07:41:32;;;;;;;2.80;2.60;;;9.90;99.90;;;;;;10365181;28;20572;-81
2022/04/08 07:46:35;;;;;;;3.03;2.83;;;9.70;99.90;;;;;;10358981;28;20604;-82
2022/04/08 07:51:37;;;;;;;5.37;3.20;;;9.50;99.90;;;;;;10338887;28;20590;-81
2022/04/08 07:56:40;;;;;;;3.47;3.17;;;9.40;99.90;;;;;;10341112;28;20211;-83
2022/04/08 08:01:46;;;;;;;4.43;3.13;;;9.50;99.90;;;;;;10352866;28;20689;-83
2022/04/08 08:06:51;;;;;;;3.97;3.63;;;9.60;99.90;;;;;;10329070;28;20226;-83
2022/04/08 08:11:53;;;;;;;3.27;3.07;;;9.70;99.90;;;;;;10358571;28;20203;-83
2022/04/08 08:16:57;;;;;;;4.43;4.00;;;9.70;99.90;;;;;;10338603;28;20214;-83
2022/04/08 08:22:01;;;;;;;3.87;3.60;;;9.80;99.90;;;;;;10339035;28;20225;-83
2022/04/08 08:27:03;;;;;;;3.90;3.70;;;10.00;99.90;;;;;;10347084;28;20234;-84
2022/04/08 08:32:10;;;;;;;3.53;3.33;;;10.20;99.90;;;;;;10329187;28;20202;-83
2022/04/08 08:37:12;;;;;;;3.60;3.40;;;10.30;99.90;;;;;;10337277;28;20261;-83
2022/04/08 08:42:14;;;;;;;3.10;2.90;;;10.40;99.90;;;;;;10336295;28;20204;-82
2022/04/08 08:47:18;;;;;;;2.40;2.30;;;10.40;99.90;;;;;;10370584;28;20225;-83
2022/04/08 08:52:21;;;;;;;3.27;3.07;;;10.30;99.90;;;;;;10327249;28;20199;-82
2022/04/08 08:57:24;;;;;;;3.40;3.20;;;10.30;99.90;;;;;;10346186;28;20234;-81
2022/04/08 09:02:27;;;;;;;3.63;3.10;;;10.30;99.90;;;;;;10351831;28;20266;-82
2022/04/08 09:07:31;;;;;;;3.33;3.23;;;10.30;99.90;;;;;;10369134;28;20206;-80
2022/04/08 09:12:33;;;;;;;3.80;3.60;;;10.20;99.90;;;;;;10368669;28;20198;-80
2022/04/08 09:17:37;;;;;;;4.90;4.50;;;10.00;99.90;;;;;;10354993;28;20257;-80
2022/04/08 09:22:39;;;;;;;5.33;4.60;;;10.00;99.90;;;;;;10337992;28;20709;-82
2022/04/08 09:27:42;;;;;;;4.97;4.67;;;10.00;99.90;;;;;;10340648;28;20730;-81
2022/04/08 09:32:50;;;;;;;4.87;4.50;;;10.10;99.90;;;;;;10419019;23;20226;-83
2022/04/08 09:38:03;;;;;;;3.83;3.73;;;10.10;99.90;;;;;;10382010;28;20646;-82
2022/04/08 09:43:05;;;;;;;4.23;4.03;;;10.00;99.90;;;;;;10378468;28;20309;-83
2022/04/08 09:48:09;;;;;;;3.20;2.97;;;10.00;99.90;;;;;;10377855;28;20263;-82
2022/04/08 09:53:13;;;;;;;4.90;4.70;;;10.00;99.90;;;;;;10379499;28;20252;-83
2022/04/08 09:58:16;;;;;;;5.33;5.10;;;9.90;99.90;;;;;;10404394;28;20206;-82
2022/04/08 10:03:20;;;;;;;4.00;3.10;;;9.90;99.90;;;;;;10391079;28;20233;-83
2022/04/08 10:08:23;;;;;;;4.80;4.60;;;9.80;99.90;;;;;;10376409;28;20751;-83
2022/04/08 10:13:38;;;;;;;4.53;4.33;;;9.70;99.90;;;;;;10392032;28;20204;-83
2022/04/08 10:18:42;;;;;;;4.70;4.50;;;9.80;99.90;;;;;;10388161;28;20637;-82
2022/04/08 10:23:49;;;;;;;4.13;3.93;;;9.90;99.90;;;;;;10370508;28;20214;-83
2022/04/08 10:28:55;;;;;;;3.30;3.20;;;9.90;99.90;;;;;;10371958;28;20693;-82
2022/04/08 10:34:00;;;;;;;3.30;3.20;;;9.80;99.90;;;;;;10409590;28;20232;-84
2022/04/08 10:39:13;;;;;;;3.30;3.10;;;9.80;99.90;;;;;;10388268;28;20214;-83
2022/04/08 10:44:16;;;;;;;3.83;3.63;;;9.80;99.90;;;;;;10389895;28;20214;-83
2022/04/08 10:49:20;;;;;;;3.90;3.80;;;9.70;99.90;;;;;;10374295;28;20283;-82
2022/04/08 10:54:34;;;;;;;4.50;4.20;;;9.70;99.90;;;;;;10409654;28;20189;-83
2022/04/08 10:59:36;;;;;;;2.47;2.37;;;9.80;99.90;;;;;;10373344;28;20221;-84
2022/04/08 11:04:40;;;;;;;2.90;2.80;;;9.90;99.90;;;;;;10388196;28;20256;-83
2022/04/08 11:09:44;;;;;;;3.60;3.50;;;9.90;99.90;;;;;;10389357;28;20601;-83
2022/04/08 11:14:54;;;;;;;3.97;3.77;;;9.80;99.90;;;;;;10391868;28;20222;-82
2022/04/08 11:19:59;;;;;;;3.23;2.90;;;9.80;99.90;;;;;;10414413;28;20221;-85
2022/04/08 11:25:02;;;;;;;4.30;4.10;;;9.80;99.90;;;;;;10400438;28;20208;-85
2022/04/08 11:30:09;;;;;;;4.10;3.70;;;9.80;99.90;;;;;;10396616;28;20217;-84
2022/04/08 11:35:13;;;;;;;2.40;2.30;;;9.70;99.90;;;;;;10392882;28;20301;-84
2022/04/08 11:40:17;;;;;;;2.40;2.30;;;9.70;99.90;;;;;;10394285;28;20975;-84
2022/04/08 11:45:19;;;;;;;3.20;3.10;;;9.70;99.90;;;;;;10393381;28;20202;-84
2022/04/08 11:50:27;;;;;;;2.83;2.63;;;9.70;99.90;;;;;;10391921;28;20232;-85
2022/04/08 11:55:30;;;;;;;3.80;3.60;;;9.60;99.90;;;;;;10395211;28;20198;-84
2022/04/08 12:00:32;;;;;;;3.13;2.93;;;9.60;99.90;;;;;;10411403;28;20217;-84
2022/04/08 12:05:48;;;;;;;4.80;4.50;;;9.60;99.90;;;;;;10395514;28;20221;-86
2022/04/08 12:10:53;;;;;;;3.80;3.60;;;9.70;99.90;;;;;;10376919;28;20730;-84
2022/04/08 12:15:56;;;;;;;4.80;4.50;;;9.70;99.90;;;;;;10374231;28;20209;-84
2022/04/08 12:21:03;;;;;;;4.93;4.63;;;9.70;99.90;;;;;;10391584;28;20674;-84
2022/04/08 12:26:06;;;;;;;5.80;5.30;;;9.60;99.90;;;;;;10385847;28;20198;-83
2022/04/08 12:31:12;;;;;;;5.60;5.30;;;9.60;99.90;;;;;;10386291;28;20251;-82
2022/04/08 12:36:17;;;;;;;4.90;4.50;;;9.60;99.90;;;;;;10382170;28;20576;-82
2022/04/08 12:41:19;;;;;;;4.80;4.53;;;9.60;99.90;;;;;;10396994;28;20681;-83
2022/04/08 12:46:22;;;;;;;4.53;4.33;;;9.60;99.90;;;;;;10395664;28;20201;-81
2022/04/08 12:51:25;;;;;;;5.33;5.03;;;9.50;99.90;;;;;;10382120;28;20221;-83
2022/04/08 12:56:27;;;;;;;5.00;4.80;;;9.60;99.90;;;;;;10400730;28;20198;-82
2022/04/08 13:01:30;;;;;;;5.40;5.10;;;9.50;99.90;;;;;;10377101;28;20214;-82
2022/04/08 13:06:36;;;;;;;4.53;4.23;;;9.30;99.90;;;;;;10395386;28;20206;-81
2022/04/08 13:11:38;;;;;;;5.00;4.80;;;9.30;99.90;;;;;;10392622;28;20228;-81
2022/04/08 13:16:40;;;;;;;4.87;4.57;;;9.40;99.90;;;;;;10417857;28;20202;-82
2022/04/08 13:21:44;;;;;;;4.10;3.90;;;9.40;99.90;;;;;;10380580;28;20767;-82
2022/04/08 13:26:46;;;;;;;3.80;3.60;;;9.50;99.90;;;;;;10390850;28;20205;-81
2022/04/08 13:31:48;;;;;;;4.30;4.10;;;9.50;99.90;;;;;;10398081;28;20222;-82
2022/04/08 13:36:52;;;;;;;4.73;4.43;;;9.50;99.90;;;;;;10372196;28;20229;-80
2022/04/08 13:41:54;;;;;;;4.93;4.67;;;9.40;99.90;;;;;;10387061;28;20230;-80
2022/04/08 13:46:56;;;;;;;5.90;5.50;;;9.50;99.90;;;;;;10410551;28;20237;-80
2022/04/08 13:52:00;;;;;;;5.87;5.57;;;9.50;99.90;;;;;;10373686;28;20218;-80
2022/04/08 13:57:02;;;;;;;4.83;4.63;;;9.20;99.90;;;;;;10380650;28;20293;-80
2022/04/08 14:02:04;;;;;;;6.13;5.73;;;9.10;99.90;;;;;;10397082;28;20214;-79
2022/04/08 14:07:08;;;;;;;5.27;4.80;;;9.00;99.90;;;;;;10396328;28;20614;-79
2022/04/08 14:12:11;;;;;;;7.10;6.70;;;8.90;99.90;;;;;;10411864;28;20225;-79
2022/04/08 14:17:13;;;;;;;8.13;7.60;;;8.90;99.90;;;;;;10407575;28;20618;-80
2022/04/08 14:22:17;;;;;;;8.10;7.57;;;8.90;99.90;;;;;;10407946;28;20210;-79
2022/04/08 14:27:19;;;;;;;8.40;7.90;;;9.10;99.90;;;;;;10396945;28;20260;-80
2022/04/08 14:32:21;;;;;;;8.97;8.47;;;9.20;99.90;;;;;;10413537;28;20729;-80
2022/04/08 14:37:25;;;;;;;13.87;12.47;;;9.40;99.90;;;;;;10380001;28;20603;-80
2022/04/08 14:42:27;;;;;;;9.53;8.93;;;9.50;99.90;;;;;;10395590;28;20214;-79
2022/04/08 14:47:29;;;;;;;4.50;4.20;;;9.60;99.90;;;;;;10413569;28;20204;-79
2022/04/08 14:52:33;;;;;;;5.20;4.90;;;9.80;99.90;;;;;;10403306;28;20772;-79
2022/04/08 14:57:35;;;;;;;5.40;5.20;;;10.00;99.90;;;;;;10410296;28;20202;-80
2022/04/08 15:02:37;;;;;;;8.30;4.47;;;10.20;99.90;;;;;;10420365;28;20703;-80
2022/04/08 15:07:41;;;;;;;4.30;3.47;;;10.40;99.90;;;;;;10387574;28;20620;-79
2022/04/08 15:12:43;;;;;;;4.40;4.20;;;10.60;99.90;;;;;;10421597;28;20755;-80
2022/04/08 15:17:45;;;;;;;4.93;4.73;;;10.90;99.90;;;;;;10421523;28;20221;-80
2022/04/08 15:22:49;;;;;;;4.97;4.60;;;11.10;99.90;;;;;;10403354;28;20730;-80
2022/04/08 15:27:51;;;;;;;4.30;4.13;;;11.20;99.90;;;;;;10409478;28;20210;-80
2022/04/08 15:32:53;;;;;;;3.70;3.50;;;11.30;99.90;;;;;;10433505;28;20226;-81
2022/04/08 15:37:57;;;;;;;3.50;3.30;;;11.40;99.90;;;;;;10399827;28;20205;-81
2022/04/08 15:42:59;;;;;;;2.57;2.43;;;11.50;99.90;;;;;;10411541;28;20225;-81
2022/04/08 15:48:01;;;;;;;3.40;3.30;;;11.50;99.90;;;;;;10429005;28;20202;-81
2022/04/08 15:53:04;;;;;;;2.37;2.23;;;11.50;99.90;;;;;;10414176;28;20253;-81
2022/04/08 15:58:06;;;;;;;3.80;2.50;;;11.50;99.90;;;;;;10409864;28;20218;-81
2022/04/08 16:03:09;;;;;;;5.93;5.43;;;11.60;99.90;;;;;;10420121;28;20760;-82
2022/04/08 16:08:12;;;;;;;2.60;2.40;;;11.70;99.90;;;;;;10415353;28;20271;-82
2022/04/08 16:13:15;;;;;;;2.40;2.30;;;11.80;99.90;;;;;;10381979;28;20305;-82
2022/04/08 16:18:17;;;;;;;3.50;3.30;;;11.90;99.90;;;;;;10399367;28;20208;-82
2022/04/08 16:23:20;;;;;;;3.00;2.90;;;12.00;99.90;;;;;;10409790;28;20612;-82
2022/04/08 16:28:22;;;;;;;2.60;2.40;;;12.10;99.90;;;;;;10407238;28;20194;-82
2022/04/08 16:33:24;;;;;;;4.83;4.60;;;12.00;99.90;;;;;;10393500;28;20297;-82
2022/04/08 16:38:28;;;;;;;5.77;5.37;;;12.00;99.90;;;;;;10389583;28;20205;-82
2022/04/08 16:43:31;;;;;;;5.63;5.33;;;11.90;99.90;;;;;;10393867;28;20198;-81
2022/04/08 16:48:33;;;;;;;3.80;3.60;;;11.50;99.90;;;;;;10411730;28;20210;-81
2022/04/08 16:53:37;;;;;;;4.60;4.40;;;10.70;99.90;;;;;;10405161;28;20210;-81
2022/04/08 16:58:40;;;;;;;4.57;4.37;;;10.00;99.90;;;;;;10370483;28;20257;-82
2022/04/08 17:03:45;;;;;;;4.00;3.80;;;9.70;99.90;;;;;;10368342;28;20209;-81
2022/04/08 17:08:50;;;;;;;4.03;3.77;;;9.40;99.90;;;;;;10407968;28;20628;-81
2022/04/08 17:13:52;;;;;;;6.00;5.53;;;9.30;99.90;;;;;;10391368;28;20202;-81
2022/04/08 17:18:54;;;;;;;5.27;4.87;;;9.20;99.90;;;;;;10378330;28;20214;-81
2022/04/08 17:24:01;;;;;;;4.23;3.93;;;9.20;99.90;;;;;;10370070;28;20720;-80
2022/04/08 17:29:03;;;;;;;3.77;3.57;;;9.10;99.90;;;;;;10379362;28;20256;-81
2022/04/08 17:34:06;;;;;;;4.70;4.40;;;8.90;99.90;;;;;;10403622;28;20661;-81
2022/04/08 17:39:11;;;;;;;5.83;5.53;;;8.80;99.90;;;;;;10401032;28;20724;-80
2022/04/08 17:44:13;;;;;;;7.27;6.67;;;8.80;99.90;;;;;;10402622;28;20202;-82
2022/04/08 17:49:16;;;;;;;6.73;6.30;;;8.70;99.90;;;;;;10429012;28;20237;-81
2022/04/08 17:54:19;;;;;;;7.03;6.63;;;8.70;99.90;;;;;;10423543;28;20204;-81
2022/04/08 17:59:21;;;;;;;7.97;7.23;;;8.70;99.90;;;;;;10414448;28;20209;-81
2022/04/08 18:04:24;;;;;;;7.60;7.10;;;8.70;99.90;;;;;;10398404;28;20729;-81
2022/04/08 18:09:28;;;;;;;7.67;7.10;;;8.60;99.90;;;;;;10398935;28;20214;-80
2022/04/08 18:14:30;;;;;;;9.30;8.67;;;8.60;99.90;;;;;;10421164;28;20197;-81
2022/04/08 18:19:33;;;;;;;8.43;7.83;;;8.50;99.90;;;;;;10386745;28;20313;-81
2022/04/08 18:24:37;;;;;;;10.37;9.60;;;8.50;99.90;;;;;;10419207;28;20189;-80
2022/04/08 18:29:39;;;;;;;10.87;10.03;;;8.60;99.90;;;;;;10405104;28;20275;-80
2022/04/08 18:34:42;;;;;;;21.40;19.10;;;8.60;99.90;;;;;;10422321;28;20208;-82
2022/04/08 18:39:46;;;;;;;14.60;13.23;;;8.50;99.90;;;;;;10402883;28;20210;-83
2022/04/08 18:44:49;;;;;;;11.20;10.40;;;8.50;99.90;;;;;;10384829;28;20256;-83
2022/04/08 18:49:51;;;;;;;12.67;11.67;;;8.30;99.90;;;;;;10399111;28;20558;-80
2022/04/08 18:54:55;;;;;;;14.37;13.07;;;8.30;99.90;;;;;;10413268;28;20225;-79
2022/04/08 18:59:57;;;;;;;13.60;12.60;;;8.30;99.90;;;;;;10418826;28;20249;-80
2022/04/08 19:04:59;;;;;;;13.53;12.43;;;8.20;99.90;;;;;;10389714;28;20190;-80
2022/04/08 19:10:03;;;;;;;13.20;12.20;;;8.20;99.90;;;;;;10422588;28;20233;-81
2022/04/08 19:15:07;;;;;;;13.97;12.77;;;8.20;99.90;;;;;;10405371;28;20236;-81
2022/04/08 19:20:10;;;;;;;15.73;14.37;;;8.30;99.90;;;;;;10424461;28;20225;-81
2022/04/08 19:25:14;;;;;;;16.80;15.40;;;8.30;99.90;;;;;;10403718;28;20202;-82
2022/04/08 19:30:16;;;;;;;16.10;14.60;;;8.30;99.90;;;;;;10390216;28;20218;-82
2022/04/08 19:35:18;;;;;;;17.00;15.50;;;8.20;99.90;;;;;;10394621;28;20260;-81
2022/04/08 19:40:22;;;;;;;16.20;14.70;;;8.20;99.90;;;;;;10436651;28;20256;-81
2022/04/08 19:45:24;;;;;;;15.80;14.50;;;8.20;99.90;;;;;;10405043;28;20190;-80
2022/04/08 19:50:27;;;;;;;16.23;14.83;;;8.30;99.90;;;;;;10418874;28;20317;-80
2022/04/08 19:55:30;;;;;;;14.90;13.70;;;8.40;99.90;;;;;;10420052;28;20202;-80
2022/04/08 20:00:34;;;;;;;12.17;11.10;;;8.40;99.90;;;;;;10410509;28;20697;-81
2022/04/08 20:05:37;;;;;;;11.80;10.90;;;8.50;99.90;;;;;;10399984;28;20198;-80
2022/04/08 20:10:42;;;;;;;12.93;11.83;;;8.50;99.90;;;;;;10401945;28;20635;-80
2022/04/08 20:15:45;;;;;;;13.80;12.57;;;8.50;99.90;;;;;;10437399;28;20277;-81
2022/04/08 20:20:48;;;;;;;14.73;13.23;;;8.50;99.90;;;;;;10420457;28;20218;-81
2022/04/08 20:25:51;;;;;;;15.60;14.27;;;8.70;99.90;;;;;;10413375;28;20201;-81
2022/04/08 20:30:54;;;;;;;17.93;16.40;;;8.80;99.90;;;;;;10402300;28;20229;-81
2022/04/08 20:35:56;;;;;;;14.17;12.97;;;8.80;99.90;;;;;;10421181;28;20206;-80
2022/04/08 20:40:59;;;;;;;9.20;8.40;;;8.90;99.90;;;;;;10424733;28;20209;-80
2022/04/08 20:46:02;;;;;;;9.87;9.17;;;8.90;99.90;;;;;;10401634;28;20209;-80
2022/04/08 20:51:05;;;;;;;5.80;5.50;;;8.80;99.90;;;;;;10402429;28;20324;-80
2022/04/08 20:56:09;;;;;;;4.10;3.90;;;8.80;99.90;;;;;;10420733;28;20190;-80
2022/04/08 21:01:11;;;;;;;4.03;3.83;;;8.70;99.90;;;;;;10420066;28;20725;-81
2022/04/08 21:06:14;;;;;;;5.53;5.03;;;8.60;99.90;;;;;;10382161;28;20598;-81
2022/04/08 21:11:17;;;;;;;3.13;3.00;;;8.60;99.90;;;;;;10422539;28;20218;-81
2022/04/08 21:16:19;;;;;;;4.30;4.00;;;8.60;99.90;;;;;;10407077;28;20264;-80
2022/04/08 21:21:21;;;;;;;4.27;3.93;;;8.50;99.90;;;;;;10402395;28;20221;-80
2022/04/08 21:26:25;;;;;;;4.67;4.37;;;8.40;99.90;;;;;;10383541;28;20211;-81
2022/04/08 21:31:27;;;;;;;4.37;4.17;;;8.40;99.90;;;;;;10378393;28;20225;-80
2022/04/08 21:36:29;;;;;;;5.53;5.03;;;8.40;99.90;;;;;;10406607;28;20205;-81
2022/04/08 21:41:34;;;;;;;6.27;5.90;;;8.40;99.90;;;;;;10392562;28;20214;-81
2022/04/08 21:46:36;;;;;;;5.80;5.40;;;8.50;99.90;;;;;;10393265;28;20219;-80
2022/04/08 21:51:39;;;;;;;6.47;6.17;;;8.50;99.90;;;;;;10393465;28;20720;-81
2022/04/08 21:56:42;;;;;;;5.93;5.53;;;8.40;99.90;;;;;;10376754;28;20268;-81
2022/04/08 22:01:44;;;;;;;6.70;6.30;;;8.40;99.90;;;;;;10386946;28;20222;-80
2022/04/08 22:06:46;;;;;;;5.33;5.03;;;8.40;99.90;;;;;;10393414;28;20284;-81
2022/04/08 22:11:50;;;;;;;4.50;4.30;;;8.30;99.90;;;;;;10408179;28;20229;-81
2022/04/08 22:16:52;;;;;;;4.13;4.00;;;8.30;99.90;;;;;;10402340;28;20694;-80
2022/04/08 22:21:54;;;;;;;3.90;3.80;;;8.10;99.90;;;;;;10388096;28;20275;-80
2022/04/08 22:26:58;;;;;;;4.57;4.37;;;7.90;99.90;;;;;;10390686;28;20202;-80
2022/04/08 22:32:01;;;;;;;3.27;3.17;;;7.70;99.90;;;;;;10395297;28;20780;-81
2022/04/08 22:37:04;;;;;;;3.63;3.43;;;7.50;99.90;;;;;;10412658;28;20205;-80
2022/04/08 22:42:08;;;;;;;3.63;3.43;;;7.20;99.90;;;;;;10409245;28;20222;-80
2022/04/08 22:47:10;;;;;;;3.10;3.00;;;7.00;99.90;;;;;;10391590;28;20327;-81
2022/04/08 22:52:12;;;;;;;3.07;2.90;;;6.80;99.90;;;;;;10377814;28;20226;-81
2022/04/08 22:57:17;;;;;;;2.63;2.53;;;6.50;99.90;;;;;;10410062;28;20198;-80
2022/04/08 23:02:19;;;;;;;2.90;2.80;;;6.20;99.90;;;;;;10390297;28;20500;-80
2022/04/08 23:07:21;;;;;;;2.50;2.50;;;6.00;99.90;;;;;;10396844;28;20202;-81
2022/04/08 23:12:25;;;;;;;2.20;2.20;;;5.80;99.90;;;;;;10378726;28;20224;-81
2022/04/08 23:17:27;;;;;;;2.40;2.30;;;5.70;99.90;;;;;;10419660;28;20229;-81
2022/04/08 23:22:29;;;;;;;2.40;2.30;;;5.50;99.90;;;;;;10397223;28;20764;-80
2022/04/08 23:27:33;;;;;;;1.97;1.93;;;5.40;99.90;;;;;;10416756;28;20208;-80
2022/04/08 23:32:35;;;;;;;2.27;2.27;;;5.30;99.90;;;;;;10416687;28;20238;-81
2022/04/08 23:37:37;;;;;;;2.43;2.33;;;5.20;99.90;;;;;;10404346;28;20205;-81
2022/04/08 23:42:41;;;;;;;2.90;2.80;;;5.10;99.90;;;;;;10413215;28;20222;-80
2022/04/08 23:47:43;;;;;;;2.90;2.80;;;5.10;99.90;;;;;;10403912;28;20244;-80
2022/04/08 23:52:45;;;;;;;2.70;2.60;;;5.00;99.90;;;;;;10402289;28;20268;-81
2022/04/08 23:57:48;;;;;;;2.20;2.20;;;4.90;99.90;;;;;;10407104;28;20245;-83
